createdAt,value
2018-07-20T00:00:20.772Z,17.73
2018-07-20T00:02:50.137Z,17.60
2018-07-20T00:05:19.527Z,16.60
2018-07-20T00:07:48.862Z,16.80
2018-07-20T00:10:18.559Z,16.87
2018-07-20T00:12:47.907Z,17.03
2018-07-20T00:15:17.283Z,16.90
2018-07-20T00:17:46.674Z,16.90
2018-07-20T00:20:17.972Z,16.70
2018-07-20T00:22:47.349Z,17.40
2018-07-20T00:25:16.906Z,17.80
2018-07-20T00:27:46.281Z,16.80
2018-07-20T00:30:15.728Z,16.50
2018-07-20T00:32:45.178Z,16.07
2018-07-20T00:35:14.597Z,16.10
2018-07-20T00:37:44.015Z,16.13
2018-07-20T00:40:13.500Z,16.40
2018-07-20T00:42:42.908Z,16.53
2018-07-20T00:45:12.323Z,16.73
2018-07-20T00:47:41.747Z,16.47
2018-07-20T00:50:11.127Z,16.87
2018-07-20T00:52:40.510Z,17.17
2018-07-20T00:55:10.058Z,16.73
2018-07-20T00:57:39.445Z,17.67
2018-07-20T01:00:08.877Z,16.57
2018-07-20T01:02:38.497Z,16.73
2018-07-20T01:05:07.896Z,17.00
2018-07-20T01:07:37.415Z,16.87
2018-07-20T01:10:06.954Z,16.00
2018-07-20T01:12:36.391Z,16.80
2018-07-20T01:15:05.983Z,16.60
2018-07-20T01:17:35.417Z,15.20
2018-07-20T01:20:05.558Z,15.83
2018-07-20T01:22:34.446Z,14.70
2018-07-20T01:25:03.925Z,15.57
2018-07-20T01:27:33.334Z,15.37
2018-07-20T01:30:02.880Z,16.93
2018-07-20T01:32:32.337Z,16.03
2018-07-20T01:35:01.839Z,16.93
2018-07-20T01:37:31.342Z,17.87
2018-07-20T01:40:00.749Z,17.83
2018-07-20T01:42:30.201Z,16.70
2018-07-20T01:44:59.821Z,16.53
2018-07-20T01:47:29.275Z,17.53
2018-07-20T01:49:58.748Z,18.20
2018-07-20T01:52:28.153Z,18.60
2018-07-20T01:54:57.636Z,19.07
2018-07-20T01:57:27.205Z,18.40
2018-07-20T01:59:56.670Z,19.17
2018-07-20T02:02:26.090Z,19.33
2018-07-20T02:04:55.570Z,18.80
2018-07-20T02:07:25.135Z,18.57
2018-07-20T02:09:53.976Z,18.33
2018-07-20T02:12:23.516Z,18.80
2018-07-20T02:14:52.911Z,19.20
2018-07-20T02:17:22.346Z,19.30
2018-07-20T02:19:51.800Z,20.33
2018-07-20T02:22:21.242Z,20.00
2018-07-20T02:24:50.836Z,19.23
2018-07-20T02:27:20.253Z,20.13
2018-07-20T02:29:49.705Z,19.83
2018-07-20T02:32:19.217Z,19.90
2018-07-20T02:34:48.690Z,20.57
2018-07-20T02:37:18.169Z,20.97
2018-07-20T02:39:47.645Z,19.70
2018-07-20T02:42:17.117Z,19.80
2018-07-20T02:44:46.620Z,19.87
2018-07-20T02:47:16.086Z,19.50
2018-07-20T02:49:45.518Z,20.03
2018-07-20T02:52:14.975Z,20.03
2018-07-20T02:54:44.423Z,20.63
2018-07-20T02:57:13.799Z,20.40
2018-07-20T02:59:43.213Z,21.10
2018-07-20T03:02:12.643Z,21.30
2018-07-20T03:04:42.096Z,19.13
2018-07-20T03:07:11.568Z,19.80
2018-07-20T03:09:40.991Z,20.57
2018-07-20T03:12:11.076Z,21.60
2018-07-20T03:14:40.492Z,20.10
2018-07-20T03:17:10.106Z,21.30
2018-07-20T03:19:39.627Z,21.40
2018-07-20T03:22:09.098Z,20.63
2018-07-20T03:24:38.583Z,20.13
2018-07-20T03:27:08.010Z,20.93
2018-07-20T03:29:37.470Z,20.57
2018-07-20T03:32:07.378Z,21.57
2018-07-20T03:34:36.798Z,20.87
2018-07-20T03:37:06.261Z,20.20
2018-07-20T03:39:36.070Z,20.20
2018-07-20T03:42:05.601Z,21.00
2018-07-20T03:44:35.640Z,20.67
2018-07-20T03:47:05.190Z,19.43
2018-07-20T03:49:34.664Z,19.17
2018-07-20T03:52:04.251Z,19.73
2018-07-20T03:54:33.988Z,19.47
2018-07-20T03:57:03.408Z,19.50
2018-07-20T03:59:32.876Z,19.57
2018-07-20T04:02:02.348Z,18.90
2018-07-20T04:04:31.816Z,18.60
2018-07-20T04:07:01.390Z,18.00
2018-07-20T04:09:30.902Z,17.63
2018-07-20T04:12:00.307Z,15.93
2018-07-20T04:14:29.712Z,16.37
2018-07-20T04:16:59.226Z,15.63
2018-07-20T04:19:28.645Z,15.27
2018-07-20T04:21:58.110Z,16.33
2018-07-20T04:24:27.514Z,15.50
2018-07-20T04:26:57.095Z,15.10
2018-07-20T04:29:26.527Z,14.97
2018-07-20T04:31:55.974Z,14.80
2018-07-20T04:34:25.435Z,14.23
2018-07-20T04:36:54.910Z,15.23
2018-07-20T04:39:24.337Z,15.03
2018-07-20T04:41:53.748Z,15.13
2018-07-20T04:44:23.681Z,15.00
2018-07-20T04:46:53.199Z,15.07
2018-07-20T04:49:22.085Z,15.03
2018-07-20T04:51:51.512Z,14.50
2018-07-20T04:54:20.981Z,15.50
2018-07-20T04:56:50.389Z,15.90
2018-07-20T04:59:19.839Z,15.53
2018-07-20T05:01:49.279Z,14.93
2018-07-20T05:04:18.755Z,16.03
2018-07-20T05:06:48.216Z,16.43
2018-07-20T05:09:17.733Z,15.10
2018-07-20T05:11:47.196Z,15.47
2018-07-20T05:14:16.638Z,15.37
2018-07-20T05:16:46.486Z,14.50
2018-07-20T05:19:15.944Z,14.23
2018-07-20T05:21:45.415Z,13.53
2018-07-20T05:24:14.881Z,13.00
2018-07-20T05:26:44.351Z,13.80
2018-07-20T05:29:13.739Z,13.80
2018-07-20T05:31:43.205Z,13.23
2018-07-20T05:34:12.768Z,12.70
2018-07-20T05:36:42.300Z,12.40
2018-07-20T05:39:12.545Z,13.60
2018-07-20T05:41:41.996Z,13.07
2018-07-20T05:44:11.418Z,12.70
2018-07-20T05:46:40.869Z,13.62
2018-07-20T05:49:10.311Z,14.07
2018-07-20T05:51:39.803Z,12.90
2018-07-20T05:54:09.338Z,14.10
2018-07-20T05:56:38.762Z,13.27
2018-07-20T05:59:08.332Z,13.53
2018-07-20T06:01:37.808Z,13.07
2018-07-20T06:04:07.334Z,11.97
2018-07-20T06:06:36.827Z,13.18
2018-07-20T06:09:10.046Z,12.47
2018-07-20T06:11:39.680Z,13.43
2018-07-20T06:14:09.726Z,12.75
2018-07-20T06:16:39.206Z,12.43
2018-07-20T06:19:08.661Z,12.63
2018-07-20T06:21:38.085Z,11.93
2018-07-20T06:24:07.636Z,12.07
2018-07-20T06:26:37.116Z,12.53
2018-07-20T06:29:06.605Z,11.73
2018-07-20T06:31:36.080Z,12.23
2018-07-20T06:34:05.663Z,12.90
2018-07-20T06:36:35.045Z,12.47
2018-07-20T06:39:06.590Z,13.17
2018-07-20T06:41:36.165Z,12.87
2018-07-20T06:44:05.807Z,12.20
2018-07-20T06:46:35.220Z,12.43
2018-07-20T06:49:04.707Z,12.57
2018-07-20T06:51:34.177Z,12.97
2018-07-20T06:54:03.641Z,13.97
2018-07-20T06:56:34.113Z,13.70
2018-07-20T06:59:03.535Z,13.98
2018-07-20T07:01:33.004Z,13.80
2018-07-20T07:04:02.637Z,14.57
2018-07-20T07:06:32.101Z,13.43
2018-07-20T07:09:01.760Z,13.23
2018-07-20T07:11:31.224Z,14.40
2018-07-20T07:14:00.630Z,13.83
2018-07-20T07:16:30.128Z,14.03
2018-07-20T07:18:59.736Z,12.63
2018-07-20T07:21:29.230Z,12.70
2018-07-20T07:23:58.745Z,12.93
2018-07-20T07:26:28.200Z,12.33
2018-07-20T07:28:57.704Z,12.37
2018-07-20T07:31:27.254Z,11.90
2018-07-20T07:33:56.713Z,11.57
2018-07-20T07:36:26.775Z,12.27
2018-07-20T07:38:56.230Z,12.43
2018-07-20T07:41:25.825Z,12.60
2018-07-20T07:43:55.438Z,12.57
2018-07-20T07:46:27.443Z,12.10
2018-07-20T07:48:56.897Z,12.70
2018-07-20T07:51:26.341Z,13.03
2018-07-20T07:53:55.775Z,12.47
2018-07-20T07:56:25.235Z,12.30
2018-07-20T07:58:54.760Z,11.37
2018-07-20T08:01:23.588Z,11.83
2018-07-20T08:03:53.053Z,11.47
2018-07-20T08:06:22.494Z,11.07
2018-07-20T08:08:51.953Z,11.73
2018-07-20T08:11:21.456Z,12.63
2018-07-20T08:13:50.911Z,12.67
2018-07-20T08:16:20.385Z,13.63
2018-07-20T08:18:49.871Z,12.77
2018-07-20T08:21:19.336Z,13.33
2018-07-20T08:23:48.792Z,10.70
2018-07-20T08:26:18.308Z,12.13
2018-07-20T08:28:47.754Z,12.03
2018-07-20T08:31:17.208Z,11.30
2018-07-20T08:33:46.673Z,11.95
2018-07-20T08:36:16.121Z,12.20
2018-07-20T08:39:37.323Z,11.40
2018-07-20T08:44:59.928Z,9.35
2018-07-20T08:47:29.362Z,9.68
2018-07-20T08:49:58.835Z,9.75
2018-07-20T08:52:28.583Z,10.25
2018-07-20T08:54:58.051Z,11.03
2018-07-20T08:57:27.531Z,11.08
2018-07-20T08:59:56.998Z,13.13
2018-07-20T09:02:26.507Z,12.40
2018-07-20T09:04:55.986Z,11.90
2018-07-20T09:07:25.486Z,22.40
2018-07-20T09:09:54.963Z,9.63
2018-07-20T09:12:24.421Z,11.22
2018-07-20T09:14:53.927Z,9.85
2018-07-20T09:17:23.417Z,14.20
2018-07-20T09:19:52.821Z,12.98
2018-07-20T09:22:22.276Z,10.40
2018-07-20T09:24:51.767Z,9.80
2018-07-20T09:27:21.210Z,10.63
2018-07-20T09:29:50.693Z,9.90
2018-07-20T09:32:20.080Z,9.98
2018-07-20T09:34:49.586Z,8.43
2018-07-20T09:37:19.172Z,8.88
2018-07-20T09:39:48.529Z,9.75
2018-07-20T09:42:18.029Z,9.38
2018-07-20T09:44:47.518Z,9.18
2018-07-20T09:47:17.053Z,8.93
2018-07-20T09:49:46.510Z,9.05
2018-07-20T09:52:15.984Z,8.40
2018-07-20T09:54:45.972Z,8.63
2018-07-20T09:57:15.524Z,8.73
2018-07-20T09:59:45.050Z,8.85
2018-07-20T10:02:14.553Z,9.30
2018-07-20T10:04:43.998Z,8.83
2018-07-20T10:07:13.504Z,9.08
2018-07-20T10:09:42.984Z,8.78
2018-07-20T10:12:12.402Z,8.48
2018-07-20T10:14:41.825Z,8.13
2018-07-20T10:17:11.632Z,8.20
2018-07-20T10:19:41.128Z,8.48
2018-07-20T10:22:10.595Z,8.20
2018-07-20T10:24:40.165Z,8.23
2018-07-20T10:29:39.057Z,9.45
2018-07-20T10:32:08.477Z,8.30
2018-07-20T10:34:37.993Z,9.45
2018-07-20T10:37:07.409Z,8.23
2018-07-20T10:39:37.429Z,9.23
2018-07-20T10:42:06.999Z,8.60
2018-07-20T10:44:36.521Z,9.13
2018-07-20T10:47:06.007Z,10.03
2018-07-20T10:49:35.476Z,9.05
2018-07-20T10:52:05.014Z,9.63
2018-07-20T10:54:34.477Z,9.03
2018-07-20T10:57:04.087Z,8.78
2018-07-20T10:59:33.678Z,7.62
2018-07-20T11:02:03.098Z,8.08
2018-07-20T11:04:32.603Z,7.90
2018-07-20T11:07:02.149Z,8.70
2018-07-20T11:09:31.648Z,8.93
2018-07-20T11:12:01.163Z,8.20
2018-07-20T11:14:30.646Z,8.95
2018-07-20T11:17:00.117Z,9.00
2018-07-20T11:19:29.550Z,9.08
2018-07-20T11:21:58.969Z,8.38
2018-07-20T11:24:34.502Z,8.23
2018-07-20T11:27:03.942Z,8.90
2018-07-20T11:29:33.432Z,8.45
2018-07-20T11:32:02.963Z,8.45
2018-07-20T11:34:32.363Z,8.70
2018-07-20T11:37:01.867Z,8.58
2018-07-20T11:39:31.279Z,7.33
2018-07-20T11:42:00.712Z,7.90
2018-07-20T11:44:30.122Z,7.20
2018-07-20T11:46:59.636Z,7.25
2018-07-20T11:49:29.135Z,7.33
2018-07-20T11:51:58.551Z,7.75
2018-07-20T11:54:28.127Z,7.58
2018-07-20T11:56:57.561Z,7.47
2018-07-20T11:59:26.956Z,6.87
2018-07-20T12:01:56.537Z,6.60
2018-07-20T12:04:26.160Z,6.92
2018-07-20T12:06:55.783Z,7.05
2018-07-20T12:09:25.327Z,6.53
2018-07-20T12:11:54.768Z,7.37
2018-07-20T12:14:24.207Z,6.45
2018-07-20T12:16:53.782Z,6.22
2018-07-20T12:19:23.288Z,7.30
2018-07-20T12:21:52.723Z,7.20
2018-07-20T12:24:22.126Z,6.72
2018-07-20T12:26:51.622Z,6.45
2018-07-20T12:29:21.073Z,7.40
2018-07-20T12:31:50.535Z,7.42
2018-07-20T12:34:19.984Z,6.55
2018-07-20T12:36:49.427Z,7.20
2018-07-20T12:39:18.893Z,6.85
2018-07-20T12:41:48.440Z,6.55
2018-07-20T12:44:17.900Z,5.90
2018-07-20T12:46:47.431Z,6.55
2018-07-20T12:49:16.946Z,7.50
2018-07-20T12:51:46.407Z,7.28
2018-07-20T12:54:16.710Z,7.33
2018-07-20T12:56:46.420Z,7.37
2018-07-20T12:59:15.884Z,7.75
2018-07-20T13:01:45.403Z,7.08
2018-07-20T13:04:14.907Z,6.95
2018-07-20T13:06:44.354Z,6.70
2018-07-20T13:09:14.163Z,7.42
2018-07-20T13:11:43.906Z,7.60
2018-07-20T13:16:04.936Z,7.37
2018-07-20T13:18:34.855Z,7.53
2018-07-20T13:21:04.322Z,7.25
2018-07-20T13:23:33.800Z,6.58
2018-07-20T13:26:03.248Z,6.08
2018-07-20T13:28:32.635Z,5.92
2018-07-20T13:31:02.253Z,6.17
2018-07-20T13:33:31.656Z,5.58
2018-07-20T13:36:01.080Z,6.00
2018-07-20T13:38:30.500Z,6.25
2018-07-20T13:41:00.110Z,5.78
2018-07-20T13:43:29.642Z,7.95
2018-07-20T13:45:59.083Z,7.40
2018-07-20T13:48:28.573Z,7.43
2018-07-20T13:50:58.079Z,7.20
2018-07-20T13:53:27.588Z,6.17
2018-07-20T13:55:57.047Z,5.43
2018-07-20T13:58:26.459Z,6.93
2018-07-20T14:00:55.937Z,7.70
2018-07-20T14:03:25.622Z,8.57
2018-07-20T14:05:55.113Z,9.13
2018-07-20T14:08:24.605Z,9.00
2018-07-20T14:10:54.056Z,9.77
2018-07-20T14:13:23.567Z,10.33
2018-07-20T14:15:53.004Z,11.57
2018-07-20T14:18:22.545Z,12.43
2018-07-20T14:20:52.080Z,12.20
2018-07-20T14:23:21.567Z,11.67
2018-07-20T14:25:51.037Z,11.83
2018-07-20T14:28:19.966Z,12.03
2018-07-20T14:30:49.421Z,12.83
2018-07-20T14:33:19.017Z,12.90
2018-07-20T14:35:48.513Z,12.27
2018-07-20T14:38:18.043Z,13.60
2018-07-20T14:40:47.552Z,11.80
2018-07-20T14:43:16.996Z,11.63
2018-07-20T14:45:46.514Z,11.43
2018-07-20T14:48:16.047Z,11.30
2018-07-20T14:50:45.555Z,10.20
2018-07-20T14:53:14.971Z,10.40
2018-07-20T14:55:44.454Z,11.30
2018-07-20T14:58:13.912Z,10.33
2018-07-20T15:00:43.363Z,10.43
2018-07-20T15:03:13.503Z,10.23
2018-07-20T15:05:42.988Z,11.90
2018-07-20T15:08:12.501Z,12.10
2018-07-20T15:10:42.000Z,14.73
2018-07-20T15:13:11.408Z,11.00
2018-07-20T15:15:40.880Z,11.70
2018-07-20T15:18:12.312Z,11.20
2018-07-20T15:20:41.717Z,13.80
2018-07-20T15:23:11.140Z,13.13
2018-07-20T15:25:40.677Z,11.63
2018-07-20T15:28:10.285Z,11.13
2018-07-20T15:30:39.708Z,8.93
2018-07-20T15:33:09.251Z,8.60
2018-07-20T15:35:38.749Z,8.87
2018-07-20T15:38:08.246Z,7.77
2018-07-20T15:40:37.764Z,7.90
2018-07-20T15:43:07.269Z,8.43
2018-07-20T15:45:36.737Z,8.60
2018-07-20T15:48:06.612Z,8.83
2018-07-20T15:50:36.075Z,7.93
2018-07-20T15:55:35.088Z,8.33
2018-07-20T15:58:04.573Z,7.33
2018-07-20T16:00:34.021Z,7.37
2018-07-20T16:03:04.424Z,7.53
2018-07-20T16:05:34.833Z,7.73
2018-07-20T16:08:07.403Z,7.53
2018-07-20T16:10:37.810Z,8.20
2018-07-20T16:13:08.288Z,7.87
2018-07-20T16:15:38.726Z,9.13
2018-07-20T16:18:08.237Z,9.80
2018-07-20T16:20:37.690Z,8.13
2018-07-20T16:23:07.102Z,7.30
2018-07-20T16:25:36.634Z,7.30
2018-07-20T16:28:06.101Z,7.30
2018-07-20T16:30:35.577Z,6.53
2018-07-20T16:33:05.025Z,6.43
2018-07-20T16:35:34.456Z,6.43
2018-07-20T16:38:04.022Z,6.43
2018-07-20T16:40:33.461Z,5.27
2018-07-20T16:43:02.912Z,5.63
2018-07-20T16:45:32.701Z,6.23
2018-07-20T16:48:02.122Z,5.73
2018-07-20T16:50:31.529Z,5.90
2018-07-20T16:53:00.988Z,5.60
2018-07-20T16:55:30.482Z,5.67
2018-07-20T16:57:59.945Z,5.50
2018-07-20T17:00:29.426Z,5.50
2018-07-20T17:02:59.078Z,5.17
2018-07-20T17:05:28.585Z,5.30
2018-07-20T17:07:58.036Z,5.10
2018-07-20T17:10:27.605Z,5.10
2018-07-20T17:12:57.086Z,4.53
2018-07-20T17:15:26.602Z,5.13
2018-07-20T17:17:56.046Z,5.33
2018-07-20T17:20:25.471Z,4.73
2018-07-20T17:22:54.871Z,4.80
2018-07-20T17:25:24.421Z,5.50
2018-07-20T17:27:53.940Z,5.47
2018-07-20T17:30:23.676Z,5.97
2018-07-20T17:32:53.179Z,5.63
2018-07-20T17:35:22.628Z,5.83
2018-07-20T17:37:52.261Z,6.37
2018-07-20T17:40:22.177Z,5.83
2018-07-20T17:42:51.692Z,6.53
2018-07-20T17:45:21.174Z,7.20
2018-07-20T17:47:50.719Z,7.77
2018-07-20T17:50:20.249Z,8.37
2018-07-20T17:52:49.838Z,7.27
2018-07-20T17:55:19.258Z,7.07
2018-07-20T17:57:48.714Z,7.50
2018-07-20T18:00:18.193Z,7.10
2018-07-20T18:02:47.678Z,8.27
2018-07-20T18:05:17.058Z,8.00
2018-07-20T18:07:46.508Z,7.40
2018-07-20T18:10:15.928Z,8.13
2018-07-20T18:12:45.381Z,7.43
2018-07-20T18:15:14.849Z,7.77
2018-07-20T18:17:44.521Z,8.77
2018-07-20T18:20:13.948Z,8.53
2018-07-20T18:22:43.392Z,9.30
2018-07-20T18:25:13.305Z,9.33
2018-07-20T18:27:42.718Z,10.23
2018-07-20T18:30:12.163Z,11.23
2018-07-20T18:32:41.709Z,10.90
2018-07-20T18:35:11.222Z,10.97
2018-07-20T18:37:40.820Z,10.47
2018-07-20T18:40:10.413Z,10.77
2018-07-20T18:42:39.854Z,10.77
2018-07-20T18:45:09.696Z,10.57
2018-07-20T18:47:39.264Z,10.53
2018-07-20T18:50:09.887Z,10.17
2018-07-20T18:52:39.394Z,10.57
2018-07-20T18:55:08.984Z,9.87
2018-07-20T18:57:38.451Z,10.13
2018-07-20T19:00:08.217Z,9.47
2018-07-20T19:02:37.734Z,9.40
2018-07-20T19:05:07.263Z,8.93
2018-07-20T19:07:36.777Z,9.77
2018-07-20T19:10:06.493Z,9.63
2018-07-20T19:12:36.012Z,11.20
2018-07-20T19:15:05.849Z,10.33
2018-07-20T19:17:35.356Z,10.23
2018-07-20T19:20:05.096Z,10.57
2018-07-20T19:22:34.673Z,10.30
2018-07-20T19:25:04.467Z,9.77
2018-07-20T19:27:33.990Z,10.20
2018-07-20T19:30:03.677Z,9.70
2018-07-20T19:32:33.300Z,10.30
2018-07-20T19:35:03.116Z,10.53
2018-07-20T19:37:32.949Z,9.87
2018-07-20T19:40:02.544Z,10.20
2018-07-20T19:42:32.255Z,10.27
2018-07-20T19:45:01.941Z,9.40
2018-07-20T19:47:31.811Z,9.80
2018-07-20T19:50:02.260Z,9.90
2018-07-20T19:52:31.964Z,9.77
2018-07-20T19:55:01.834Z,10.70
2018-07-20T19:57:32.179Z,12.30
2018-07-20T20:00:03.051Z,12.93
2018-07-20T20:02:32.802Z,14.10
2018-07-20T20:05:04.569Z,12.40
2018-07-20T20:07:34.234Z,11.17
2018-07-20T20:10:04.094Z,10.73
2018-07-20T20:12:35.745Z,10.53
2018-07-20T20:15:06.967Z,10.47
2018-07-20T20:17:36.948Z,10.47
2018-07-20T20:20:11.362Z,9.97
2018-07-20T20:22:41.636Z,10.23
2018-07-20T20:25:13.887Z,10.27
2018-07-20T20:27:45.004Z,9.00
2018-07-20T20:30:17.543Z,8.27
2018-07-20T20:32:47.604Z,7.80
2018-07-20T20:35:23.539Z,8.67
2018-07-20T20:37:55.891Z,8.90
2018-07-20T20:40:27.667Z,8.03
2018-07-20T20:42:57.822Z,8.50
2018-07-20T20:45:27.666Z,7.93
2018-07-20T20:47:59.465Z,8.10
2018-07-20T20:50:31.094Z,7.70
2018-07-20T20:53:01.082Z,7.83
2018-07-20T20:55:31.333Z,7.57
2018-07-20T20:58:00.965Z,7.20
2018-07-20T21:00:32.695Z,7.60
2018-07-20T21:03:02.377Z,6.97
2018-07-20T21:05:32.139Z,6.87
2018-07-20T21:08:01.675Z,6.50
2018-07-20T21:10:31.197Z,7.00
2018-07-20T21:13:00.724Z,7.37
2018-07-20T21:15:32.312Z,6.30
2018-07-20T21:18:02.229Z,7.17
2018-07-20T21:20:31.738Z,6.20
2018-07-20T21:23:01.482Z,6.20
2018-07-20T21:25:31.167Z,6.23
2018-07-20T21:28:00.848Z,6.60
2018-07-20T21:30:30.363Z,6.03
2018-07-20T21:33:00.334Z,6.10
2018-07-20T21:35:30.516Z,6.37
2018-07-20T21:38:00.058Z,6.07
2018-07-20T21:40:29.425Z,6.47
2018-07-20T21:42:59.089Z,6.50
2018-07-20T21:45:29.067Z,6.57
2018-07-20T21:47:58.556Z,6.37
2018-07-20T21:50:28.043Z,6.13
2018-07-20T21:52:57.518Z,6.40
2018-07-20T21:55:28.172Z,6.43
2018-07-20T21:57:58.853Z,6.60
2018-07-20T22:00:29.430Z,6.90
2018-07-20T22:03:00.915Z,6.30
2018-07-20T22:05:30.355Z,6.57
2018-07-20T22:08:03.514Z,6.73
2018-07-20T22:10:33.140Z,6.90
2018-07-20T22:13:03.981Z,6.00
2018-07-20T22:15:34.947Z,6.07
2018-07-20T22:18:07.665Z,5.90
2018-07-20T22:20:37.342Z,5.83
2018-07-20T22:23:06.967Z,6.60
2018-07-20T22:25:36.938Z,5.93
2018-07-20T22:28:07.536Z,6.27
2018-07-20T22:30:37.172Z,5.90
2018-07-20T22:33:07.804Z,6.37
2018-07-20T22:35:37.411Z,5.97
2018-07-20T22:38:07.567Z,6.50
2018-07-20T22:40:37.162Z,6.20
2018-07-20T22:43:06.872Z,5.87
2018-07-20T22:45:38.363Z,5.83
2018-07-20T22:48:07.963Z,5.70
2018-07-20T22:50:37.475Z,5.70
2018-07-20T22:53:08.616Z,5.80
2018-07-20T22:55:38.799Z,5.47
2018-07-20T22:58:08.236Z,5.67
2018-07-20T23:00:37.844Z,6.07
2018-07-20T23:03:08.206Z,6.33
2018-07-20T23:05:38.304Z,6.47
2018-07-20T23:08:07.905Z,6.30
2018-07-20T23:10:37.341Z,6.53
2018-07-20T23:13:06.784Z,6.50
2018-07-20T23:15:36.319Z,6.23
2018-07-20T23:18:05.936Z,6.60
2018-07-20T23:20:35.371Z,6.20
2018-07-20T23:23:04.915Z,7.00
2018-07-20T23:25:34.286Z,7.23
2018-07-20T23:28:03.747Z,7.00
2018-07-20T23:30:33.231Z,7.37
2018-07-20T23:33:02.668Z,7.63
2018-07-20T23:35:32.138Z,8.00
2018-07-20T23:38:01.667Z,8.20
2018-07-20T23:40:31.052Z,8.33
2018-07-20T23:43:00.504Z,7.40
2018-07-20T23:45:29.936Z,8.20
2018-07-20T23:47:59.437Z,8.43
2018-07-20T23:50:28.865Z,8.73
2018-07-20T23:52:58.318Z,8.60
2018-07-20T23:55:27.793Z,8.30
2018-07-20T23:57:57.218Z,7.77
